Time;durP1;ratioP1;P1;durP2;ratioP2;P2;SDS_P1;SDS_P2;PMS_P1;PMS_P2;Temp;Humidity;BMP_temperature;BMP_pressure;BME280_temperature;BME280_humidity;BME280_pressure;Samples;Min_cycle;Max_cycle;Signal;HPM_P1;HPM_P2
2024/02/15 06:53:55;;;;;;;;;27.67;22.00;;;;;;;;5104963;27;13477;-69
2024/02/15 06:56:21;;;;;;;;;20.67;18.67;;;;;;;;5108254;28;8791;-68
2024/02/15 06:58:48;;;;;;;;;16.67;14.33;;;;;;;;5108211;28;8826;-66
2024/02/15 07:01:15;;;;;;;;;16.33;15.00;;;;;;;;5108189;28;9685;-73
2024/02/15 07:03:41;;;;;;;;;13.67;12.33;;;;;;;;5108067;28;8792;-68
2024/02/15 07:06:06;;;;;;;;;13.33;12.00;;;;;;;;5106700;28;8814;-69
2024/02/15 07:08:33;;;;;;;;;18.33;14.33;;;;;;;;5106625;28;9679;-66
2024/02/15 07:10:58;;;;;;;;;15.33;13.00;;;;;;;;5107918;28;8876;-66
2024/02/15 07:13:23;;;;;;;;;12.00;9.67;;;;;;;;5107751;28;11514;-67
2024/02/15 07:15:54;;;;;;;;;24.33;19.00;;;;;;;;5107720;28;8780;-68
2024/02/15 07:18:22;;;;;;;;;21.00;16.67;;;;;;;;5106307;28;8811;-68
2024/02/15 07:20:47;;;;;;;;;21.00;16.00;;;;;;;;5106448;28;11482;-67
2024/02/15 07:23:12;;;;;;;;;23.33;18.00;;;;;;;;5107539;28;12287;-67
2024/02/15 07:25:39;;;;;;;;;22.00;18.00;;;;;;;;5107709;28;8868;-67
2024/02/15 07:28:04;;;;;;;;;15.67;13.00;;;;;;;;5107412;28;8812;-67
2024/02/15 07:30:30;;;;;;;;;13.75;12.50;;;;;;;;5107421;28;11592;-67
2024/02/15 07:32:56;;;;;;;;;14.00;14.00;;;;;;;;5107296;28;8934;-67
2024/02/15 07:35:24;;;;;;;;;14.75;13.00;;;;;;;;5107473;28;11479;-68
2024/02/15 07:37:55;;;;;;;;;24.67;20.33;;;;;;;;5107304;28;8775;-67
2024/02/15 07:40:22;;;;;;;;;20.25;17.75;;;;;;;;5105966;28;11515;-68
2024/02/15 07:42:47;;;;;;;;;20.00;20.00;;;;;;;;5107155;28;11485;-67
2024/02/15 07:45:12;;;;;;;;;20.75;17.75;;;;;;;;5107044;28;11505;-67
2024/02/15 07:47:38;;;;;;;;;17.25;16.50;;;;;;;;5106997;28;8773;-67
2024/02/15 07:50:05;;;;;;;;;25.50;21.75;;;;;;;;5107336;28;8776;-67
2024/02/15 07:52:30;;;;;;;;;22.50;17.75;;;;;;;;5105864;28;8889;-67
2024/02/15 07:54:56;;;;;;;;;18.75;17.25;;;;;;;;5106887;28;12284;-67
2024/02/15 07:57:21;;;;;;;;;17.50;16.00;;;;;;;;5106981;28;8792;-67
2024/02/15 07:59:49;;;;;;;;;21.50;21.50;;;;;;;;5106847;28;9493;-67
2024/02/15 08:02:18;;;;;;;;;25.25;20.25;;;;;;;;5105571;28;8826;-67
2024/02/15 08:04:46;;;;;;;;;23.00;20.25;;;;;;;;5094945;28;11520;-70
2024/02/15 08:07:11;;;;;;;;;24.75;24.00;;;;;;;;5093095;28;11487;-69
2024/02/15 08:09:37;;;;;;;;;25.75;22.00;;;;;;;;5093219;28;11589;-68
2024/02/15 08:12:05;;;;;;;;;21.00;19.50;;;;;;;;5093192;28;8832;-69
2024/02/15 08:14:31;;;;;;;;;19.75;18.50;;;;;;;;5092859;28;12139;-68
2024/02/15 08:16:56;;;;;;;;;28.75;27.50;;;;;;;;5092357;28;11497;-69
2024/02/15 08:19:22;;;;;;;;;23.75;22.75;;;;;;;;5092984;28;8794;-69
2024/02/15 08:21:51;;;;;;;;;22.00;20.50;;;;;;;;5091615;28;8804;-69
2024/02/15 08:24:17;;;;;;;;;22.00;21.00;;;;;;;;5092794;28;11570;-67
2024/02/15 08:26:43;;;;;;;;;22.00;22.00;;;;;;;;5092837;28;11303;-69
2024/02/15 08:29:09;;;;;;;;;27.00;25.25;;;;;;;;5092901;28;8842;-69
2024/02/15 08:31:34;;;;;;;;;25.75;23.25;;;;;;;;5093210;28;8848;-69
2024/02/15 08:34:01;;;;;;;;;27.00;24.75;;;;;;;;5092833;28;11448;-68
2024/02/15 08:36:26;;;;;;;;;31.25;27.25;;;;;;;;5092738;28;8837;-67
2024/02/15 08:38:52;;;;;;;;;29.75;27.00;;;;;;;;5091521;28;11459;-67
2024/02/15 08:41:20;;;;;;;;;30.50;25.75;;;;;;;;5092634;28;8776;-67
2024/02/15 08:43:48;;;;;;;;;30.00;27.75;;;;;;;;5092430;28;8804;-68
2024/02/15 08:46:13;;;;;;;;;33.25;29.50;;;;;;;;5092281;28;11563;-67
2024/02/15 08:48:39;;;;;;;;;32.00;28.75;;;;;;;;5092295;28;11500;-66
2024/02/15 08:51:05;;;;;;;;;31.00;25.25;;;;;;;;5092361;28;8791;-68
2024/02/15 08:53:31;;;;;;;;;31.00;26.25;;;;;;;;5092476;28;8800;-68
2024/02/15 08:55:57;;;;;;;;;30.75;27.00;;;;;;;;5092119;28;10947;-68
2024/02/15 08:58:22;;;;;;;;;28.50;27.50;;;;;;;;5090839;28;8836;-68
2024/02/15 09:00:47;;;;;;;;;32.50;30.50;;;;;;;;5090816;28;8811;-68
2024/02/15 09:03:12;;;;;;;;;29.75;26.75;;;;;;;;5092037;28;9489;-68
2024/02/15 09:05:38;;;;;;;;;40.25;37.50;;;;;;;;5091919;28;8799;-68
2024/02/15 09:08:04;;;;;;;;;25.00;24.00;;;;;;;;5092085;28;8898;-68
2024/02/15 09:10:30;;;;;;;;;28.25;26.25;;;;;;;;5092021;28;9621;-68
2024/02/15 09:12:56;;;;;;;;;26.75;26.50;;;;;;;;5090531;28;9529;-68
2024/02/15 09:15:22;;;;;;;;;30.75;26.50;;;;;;;;5090783;28;11482;-68
2024/02/15 09:17:50;;;;;;;;;27.25;25.75;;;;;;;;5091186;28;8796;-68
2024/02/15 09:20:18;;;;;;;;;36.50;32.00;;;;;;;;5092102;28;8780;-68
2024/02/15 09:22:46;;;;;;;;;35.75;28.00;;;;;;;;5090276;28;11549;-68
2024/02/15 09:25:12;;;;;;;;;32.75;26.75;;;;;;;;5091618;28;12539;-68
2024/02/15 09:27:38;;;;;;;;;35.00;30.50;;;;;;;;5091397;28;11483;-68
2024/02/15 09:30:07;;;;;;;;;37.00;30.75;;;;;;;;5091551;28;11550;-68
2024/02/15 09:32:34;;;;;;;;;30.25;30.25;;;;;;;;5091670;28;8803;-68
2024/02/15 09:35:00;;;;;;;;;40.25;33.75;;;;;;;;5091656;28;11514;-68
2024/02/15 09:37:27;;;;;;;;;36.25;34.75;;;;;;;;5091332;28;11490;-68
2024/02/15 09:39:53;;;;;;;;;31.50;29.00;;;;;;;;5091425;28;8784;-71
2024/02/15 09:42:18;;;;;;;;;38.25;34.25;;;;;;;;5089895;28;11541;-67
2024/02/15 09:44:44;;;;;;;;;42.75;36.25;;;;;;;;5091322;28;8800;-68
2024/02/15 09:47:12;;;;;;;;;44.00;38.00;;;;;;;;5091459;28;8772;-68
2024/02/15 09:49:39;;;;;;;;;42.25;37.50;;;;;;;;5091144;28;11496;-68
2024/02/15 09:52:11;;;;;;;;;33.50;33.25;;;;;;;;5089733;28;11564;-68
2024/02/15 09:54:39;;;;;;;;;37.75;35.50;;;;;;;;5091041;28;11516;-68
2024/02/15 09:57:05;;;;;;;;;36.75;34.00;;;;;;;;5089873;28;11520;-68
2024/02/15 09:59:31;;;;;;;;;42.25;35.75;;;;;;;;5091011;28;11482;-68
2024/02/15 10:01:58;;;;;;;;;39.00;34.25;;;;;;;;5091220;28;8888;-68
2024/02/15 10:04:25;;;;;;;;;40.25;32.75;;;;;;;;5090915;28;11500;-68
2024/02/15 10:06:50;;;;;;;;;34.00;30.00;;;;;;;;5090819;28;11567;-67
2024/02/15 10:09:28;;;;;;;;;34.00;31.75;;;;;;;;5090757;28;11474;-68
2024/02/15 10:11:58;;;;;;;;;37.00;31.25;;;;;;;;5089474;28;9602;-68
2024/02/15 10:14:24;;;;;;;;;35.00;32.75;;;;;;;;5090854;28;11566;-67
2024/02/15 10:16:49;;;;;;;;;46.00;39.50;;;;;;;;5091133;28;11604;-67
2024/02/15 10:19:16;;;;;;;;;42.75;37.75;;;;;;;;5090730;28;8776;-67
2024/02/15 10:21:41;;;;;;;;;47.00;41.25;;;;;;;;5090577;28;8776;-68
2024/02/15 10:24:08;;;;;;;;;51.75;44.00;;;;;;;;5090493;28;11504;-67
2024/02/15 10:26:35;;;;;;;;;55.25;43.25;;;;;;;;5090355;28;8803;-68
2024/02/15 10:29:10;;;;;;;;;49.25;42.25;;;;;;;;5089154;28;11522;-68
2024/02/15 10:31:36;;;;;;;;;47.25;40.00;;;;;;;;5090476;28;11534;-68
2024/02/15 10:34:03;;;;;;;;;47.00;38.75;;;;;;;;5090502;28;11508;-68
2024/02/15 10:36:29;;;;;;;;;51.50;39.00;;;;;;;;5090466;28;8888;-68
2024/02/15 10:39:10;;;;;;;;;51.25;43.75;;;;;;;;5090334;28;11521;-68
2024/02/15 10:41:37;;;;;;;;;50.50;41.50;;;;;;;;5090417;28;8872;-68
2024/02/15 10:44:02;;;;;;;;;48.75;40.50;;;;;;;;5090457;28;12270;-68
2024/02/15 10:46:27;;;;;;;;;49.50;42.50;;;;;;;;5090186;28;11505;-68
2024/02/15 10:48:53;;;;;;;;;53.50;42.75;;;;;;;;5090229;28;8834;-68
2024/02/15 10:51:21;;;;;;;;;50.75;42.25;;;;;;;;5090555;28;8772;-68
2024/02/15 10:53:52;;;;;;;;;47.75;39.75;;;;;;;;5090327;28;8800;-68
2024/02/15 10:56:22;;;;;;;;;49.75;41.00;;;;;;;;5090245;28;11592;-68
2024/02/15 10:58:50;;;;;;;;;47.50;38.25;;;;;;;;5090272;28;11537;-68
2024/02/15 11:01:17;;;;;;;;;50.25;41.50;;;;;;;;5088873;28;11531;-68
2024/02/15 11:03:51;;;;;;;;;52.50;42.00;;;;;;;;5090140;28;11577;-67
2024/02/15 11:06:19;;;;;;;;;48.75;40.25;;;;;;;;5088691;28;11562;-67
2024/02/15 11:08:45;;;;;;;;;49.00;39.25;;;;;;;;5090093;28;11451;-67
2024/02/15 11:11:14;;;;;;;;;51.75;41.00;;;;;;;;5089992;28;11064;-68
2024/02/15 11:13:39;;;;;;;;;50.75;40.50;;;;;;;;5090071;28;8825;-67
2024/02/15 11:16:04;;;;;;;;;42.25;36.50;;;;;;;;5089913;28;11208;-69
2024/02/15 11:18:48;;;;;;;;;45.00;37.25;;;;;;;;5089261;28;8800;-67
2024/02/15 11:21:15;;;;;;;;;43.50;37.25;;;;;;;;5090085;28;8812;-67
2024/02/15 11:23:41;;;;;;;;;44.25;37.75;;;;;;;;5088495;28;10800;-67
2024/02/15 11:26:29;;;;;;;;;41.75;37.00;;;;;;;;5089864;28;11228;-68
2024/02/15 11:28:55;;;;;;;;;50.25;39.50;;;;;;;;5089801;28;11582;-68
2024/02/15 11:31:39;;;;;;;;;47.25;39.25;;;;;;;;5088590;28;11473;-67
2024/02/15 11:34:41;;;;;;;;;48.50;38.25;;;;;;;;5089979;28;8780;-68
2024/02/15 11:37:06;;;;;;;;;50.75;41.25;;;;;;;;5089738;28;11593;-67
2024/02/15 11:39:45;;;;;;;;;41.00;34.75;;;;;;;;5091799;28;11594;-67
2024/02/15 11:42:29;;;;;;;;;41.00;37.00;;;;;;;;5093715;28;8855;-67
2024/02/15 11:45:11;;;;;;;;;54.75;44.50;;;;;;;;5093492;28;11450;-67
2024/02/15 11:47:42;;;;;;;;;51.50;41.00;;;;;;;;5093445;28;11491;-67
2024/02/15 11:50:12;;;;;;;;;55.75;45.25;;;;;;;;5093502;28;11528;-68
2024/02/15 11:52:40;;;;;;;;;54.00;44.75;;;;;;;;5093540;28;12216;-67
2024/02/15 11:55:13;;;;;;;;;48.25;41.25;;;;;;;;5093453;28;11535;-67
2024/02/15 11:58:05;;;;;;;;;47.25;39.00;;;;;;;;5093285;28;12289;-68
2024/02/15 12:20:11;;;;;;;;;56.50;45.25;;;;;;;;5093054;28;11485;-67
2024/02/15 12:22:40;;;;;;;;;46.25;40.25;;;;;;;;5093114;28;12452;-67
2024/02/15 12:25:11;;;;;;;;;59.00;48.50;;;;;;;;5092944;28;11506;-67
2024/02/15 12:27:40;;;;;;;;;55.00;46.25;;;;;;;;5093087;28;11528;-67
2024/02/15 12:30:06;;;;;;;;;53.25;43.50;;;;;;;;5091492;28;12395;-67
2024/02/15 12:32:32;;;;;;;;;57.50;45.50;;;;;;;;5092782;28;11480;-68
2024/02/15 12:35:30;;;;;;;;;58.00;46.25;;;;;;;;5092663;28;12304;-68
2024/02/15 12:38:04;;;;;;;;;56.00;42.25;;;;;;;;5070130;28;8906;-68
2024/02/15 12:40:30;;;;;;;;;49.75;41.75;;;;;;;;5070127;28;11640;-68
2024/02/15 12:42:56;;;;;;;;;54.25;42.25;;;;;;;;5069969;28;11612;-68
2024/02/15 12:45:21;;;;;;;;;52.00;42.75;;;;;;;;5069768;28;11470;-68
2024/02/15 12:47:53;;;;;;;;;53.50;43.75;;;;;;;;5070173;28;8819;-67
2024/02/15 12:50:22;;;;;;;;;54.00;44.00;;;;;;;;5053191;28;8816;-67
2024/02/15 12:52:47;;;;;;;;;52.75;42.50;;;;;;;;5052957;28;11501;-67
2024/02/15 12:55:14;;;;;;;;;47.50;39.75;;;;;;;;5069795;28;11489;-67
2024/02/15 12:57:41;;;;;;;;;46.75;37.00;;;;;;;;5070104;28;8796;-67
2024/02/15 13:00:17;;;;;;;;;55.50;44.00;;;;;;;;5069733;28;11599;-68
2024/02/15 13:02:43;;;;;;;;;54.00;42.75;;;;;;;;5052929;28;11543;-68
2024/02/15 13:05:08;;;;;;;;;50.00;42.00;;;;;;;;5052889;28;11475;-68
2024/02/15 13:07:34;;;;;;;;;54.00;42.25;;;;;;;;5069703;28;8880;-67
2024/02/15 13:10:00;;;;;;;;;51.50;43.75;;;;;;;;5052928;28;8821;-67
2024/02/15 13:12:25;;;;;;;;;57.75;46.50;;;;;;;;5070450;28;11498;-67
2024/02/15 13:14:50;;;;;;;;;56.00;45.75;;;;;;;;5092189;28;8968;-67
2024/02/15 13:17:18;;;;;;;;;58.00;43.75;;;;;;;;5092495;28;8799;-67
2024/02/15 13:19:48;;;;;;;;;57.00;45.50;;;;;;;;5092080;28;8776;-67
2024/02/15 13:22:15;;;;;;;;;55.00;44.00;;;;;;;;5090625;28;11648;-67
2024/02/15 13:24:41;;;;;;;;;58.75;46.50;;;;;;;;5091956;28;11499;-67
2024/02/15 13:27:12;;;;;;;;;51.25;41.75;;;;;;;;5091674;28;11490;-66
2024/02/15 13:29:37;;;;;;;;;58.00;47.75;;;;;;;;5092143;28;8780;-70
2024/02/15 13:32:03;;;;;;;;;51.50;39.50;;;;;;;;5091949;28;11496;-67
2024/02/15 13:34:28;;;;;;;;;58.75;46.25;;;;;;;;5091831;28;8814;-66
2024/02/15 13:36:54;;;;;;;;;53.50;45.50;;;;;;;;5091790;28;9505;-67
2024/02/15 13:39:21;;;;;;;;;52.00;41.75;;;;;;;;5091891;28;8783;-67
2024/02/15 13:41:47;;;;;;;;;53.75;43.50;;;;;;;;5091473;28;11509;-72
2024/02/15 13:44:14;;;;;;;;;52.25;40.75;;;;;;;;5091783;28;11509;-70
2024/02/15 13:46:42;;;;;;;;;52.50;42.75;;;;;;;;5091653;28;8792;-68
2024/02/15 13:49:08;;;;;;;;;50.50;42.00;;;;;;;;5090321;28;11535;-69
2024/02/15 13:51:34;;;;;;;;;40.00;36.50;;;;;;;;5090926;28;10985;-69
2024/02/15 13:54:00;;;;;;;;;44.75;40.25;;;;;;;;5091602;28;8810;-67
2024/02/15 13:56:25;;;;;;;;;43.75;38.75;;;;;;;;5091296;28;11493;-68
2024/02/15 13:58:50;;;;;;;;;43.50;35.00;;;;;;;;5091461;28;8799;-68
2024/02/15 14:01:15;;;;;;;;;44.50;36.75;;;;;;;;5091016;28;8772;-68
2024/02/15 14:03:41;;;;;;;;;41.00;35.50;;;;;;;;5091448;28;8880;-68
2024/02/15 14:06:06;;;;;;;;;38.00;33.25;;;;;;;;5091260;28;8922;-67
2024/02/15 14:08:32;;;;;;;;;42.50;36.25;;;;;;;;5091254;28;8799;-69
2024/02/15 14:10:57;;;;;;;;;45.75;38.25;;;;;;;;5091096;28;8780;-70
2024/02/15 14:13:22;;;;;;;;;43.00;37.25;;;;;;;;5091115;28;8814;-68
2024/02/15 14:15:48;;;;;;;;;36.00;34.50;;;;;;;;5091270;28;8868;-70
2024/02/15 14:18:14;;;;;;;;;39.75;35.00;;;;;;;;5091520;28;8792;-69
2024/02/15 14:20:42;;;;;;;;;37.50;34.00;;;;;;;;5091033;28;8787;-68
2024/02/15 14:23:13;;;;;;;;;35.75;34.00;;;;;;;;5089588;28;11628;-67
2024/02/15 14:25:39;;;;;;;;;43.75;39.00;;;;;;;;5090889;28;11546;-65
2024/02/15 14:28:07;;;;;;;;;41.00;36.25;;;;;;;;5089560;28;11504;-66
2024/02/15 14:33:19;;;;;;;;;41.25;35.75;;;;;;;;5090508;28;11617;-67
2024/02/15 14:35:45;;;;;;;;;48.00;37.50;;;;;;;;5090081;28;11514;-68
2024/02/15 14:38:11;;;;;;;;;47.75;37.75;;;;;;;;5090346;28;11526;-67
2024/02/15 14:40:37;;;;;;;;;42.00;34.75;;;;;;;;5090334;28;8784;-67
2024/02/15 14:43:04;;;;;;;;;37.50;31.75;;;;;;;;5090041;28;11649;-67
2024/02/15 14:45:30;;;;;;;;;43.00;36.75;;;;;;;;5090321;28;8800;-67
2024/02/15 14:47:56;;;;;;;;;43.75;36.25;;;;;;;;5085730;28;11553;-68
2024/02/15 14:50:23;;;;;;;;;41.75;36.00;;;;;;;;5075215;28;11540;-66
2024/02/15 14:52:48;;;;;;;;;35.00;34.00;;;;;;;;5077215;28;8945;-67
2024/02/15 14:55:14;;;;;;;;;33.25;31.25;;;;;;;;5070051;28;11600;-67
2024/02/15 14:57:39;;;;;;;;;34.25;33.50;;;;;;;;5071616;28;8821;-66
2024/02/15 15:00:10;;;;;;;;;39.25;34.00;;;;;;;;5090468;28;9494;-67
2024/02/15 15:02:36;;;;;;;;;43.75;35.50;;;;;;;;5090279;28;8858;-67
2024/02/15 15:13:13;;;;;;;;;38.00;32.75;;;;;;;;5090249;28;11511;-67
2024/02/15 15:15:39;;;;;;;;;32.50;26.00;;;;;;;;5094023;28;11614;-66
2024/02/15 15:18:05;;;;;;;;;31.50;30.25;;;;;;;;5094380;28;8784;-67
2024/02/15 15:20:33;;;;;;;;;33.25;32.00;;;;;;;;5093956;28;11530;-67
2024/02/15 15:22:58;;;;;;;;;31.50;29.00;;;;;;;;5094274;28;8827;-67
2024/02/15 15:25:23;;;;;;;;;31.25;30.50;;;;;;;;5094508;28;11551;-67
2024/02/15 15:27:50;;;;;;;;;31.25;26.00;;;;;;;;5094023;28;9614;-70
2024/02/15 15:30:18;;;;;;;;;29.50;27.50;;;;;;;;5092822;28;8871;-71
2024/02/15 15:32:46;;;;;;;;;26.50;25.00;;;;;;;;5093781;28;11598;-68
2024/02/15 15:35:12;;;;;;;;;35.25;24.50;;;;;;;;5092984;28;12239;-68
2024/02/15 15:37:38;;;;;;;;;24.75;22.75;;;;;;;;5089116;28;11516;-67
2024/02/15 15:40:06;;;;;;;;;25.25;22.25;;;;;;;;5085125;28;11565;-67
2024/02/15 15:42:32;;;;;;;;;29.25;25.25;;;;;;;;5093675;28;8815;-68
2024/02/15 15:44:57;;;;;;;;;39.75;34.50;;;;;;;;5091640;28;11464;-69
2024/02/15 15:47:23;;;;;;;;;39.50;36.75;;;;;;;;5091652;28;11561;-68
2024/02/15 15:49:48;;;;;;;;;35.50;35.00;;;;;;;;5092528;28;8827;-68
2024/02/15 15:52:13;;;;;;;;;34.00;32.25;;;;;;;;5091799;28;8819;-69
2024/02/15 15:54:41;;;;;;;;;39.50;34.25;;;;;;;;5109975;28;8817;-70
2024/02/15 15:57:07;;;;;;;;;33.50;31.25;;;;;;;;5111853;28;8801;-71
2024/02/15 15:59:32;;;;;;;;;36.00;32.75;;;;;;;;5112165;28;12441;-70
2024/02/15 16:01:57;;;;;;;;;35.50;32.25;;;;;;;;5105364;28;8812;-70
